Time;durP1;ratioP1;P1;durP2;ratioP2;P2;SDS_P1;SDS_P2;PMS_P1;PMS_P2;Temp;Humidity;BMP_temperature;BMP_pressure;BME280_temperature;BME280_humidity;BME280_pressure;Samples;Min_cycle;Max_cycle;Signal;HPM_P1;HPM_P2
2023/05/22 00:00:37;;;;;;;3.47;2.50;;;;;;;;;;5024753;28;59070;-63
2023/05/22 00:03:03;;;;;;;3.70;2.55;;;;;;;;;;5027764;28;58309;-63
2023/05/22 00:05:29;;;;;;;2.50;2.30;;;;;;;;;;5025258;28;58682;-60
2023/05/22 00:07:54;;;;;;;2.72;2.53;;;;;;;;;;5029411;28;58643;-65
2023/05/22 00:10:19;;;;;;;2.77;2.57;;;;;;;;;;5027396;28;58328;-66
2023/05/22 00:12:44;;;;;;;4.95;3.72;;;;;;;;;;5025439;28;58362;-64
2023/05/22 00:15:10;;;;;;;2.90;2.70;;;;;;;;;;5024220;28;58465;-62
2023/05/22 00:17:35;;;;;;;7.82;3.30;;;;;;;;;;5023460;28;58504;-63
2023/05/22 00:20:07;;;;;;;2.93;2.40;;;;;;;;;;5024434;28;60042;-62
2023/05/22 00:22:35;;;;;;;2.72;2.30;;;;;;;;;;5024798;28;63900;-63
2023/05/22 00:25:03;;;;;;;3.30;3.00;;;;;;;;;;5024377;28;58373;-63
2023/05/22 00:27:28;;;;;;;2.33;2.22;;;;;;;;;;5022657;28;59019;-60
2023/05/22 00:29:53;;;;;;;2.60;2.40;;;;;;;;;;5022233;28;58457;-62
2023/05/22 00:32:18;;;;;;;2.70;2.50;;;;;;;;;;5025135;28;58629;-62
2023/05/22 00:34:44;;;;;;;2.77;2.57;;;;;;;;;;5021012;28;58286;-63
2023/05/22 00:37:09;;;;;;;3.20;2.00;;;;;;;;;;5022762;28;58564;-62
2023/05/22 00:39:35;;;;;;;3.00;2.70;;;;;;;;;;5019105;28;59097;-62
2023/05/22 00:42:00;;;;;;;5.60;2.53;;;;;;;;;;5026969;28;58480;-63
2023/05/22 00:44:25;;;;;;;2.72;2.53;;;;;;;;;;5023568;28;58671;-63
2023/05/22 00:46:51;;;;;;;2.70;2.50;;;;;;;;;;5021948;28;58623;-62
2023/05/22 00:49:16;;;;;;;2.33;2.20;;;;;;;;;;5024219;28;58371;-63
2023/05/22 00:51:41;;;;;;;2.78;2.58;;;;;;;;;;5023700;28;58446;-63
2023/05/22 00:54:06;;;;;;;2.50;2.20;;;;;;;;;;5025240;28;59424;-63
2023/05/22 00:56:32;;;;;;;3.70;3.40;;;;;;;;;;5024688;28;58719;-63
2023/05/22 00:58:57;;;;;;;2.78;2.58;;;;;;;;;;5023307;28;58370;-61
2023/05/22 01:01:25;;;;;;;2.33;2.23;;;;;;;;;;5022753;28;58351;-62
2023/05/22 01:03:50;;;;;;;2.90;2.70;;;;;;;;;;5025099;28;58307;-63
2023/05/22 01:06:17;;;;;;;2.72;2.40;;;;;;;;;;5024659;28;58994;-61
2023/05/22 01:08:42;;;;;;;2.55;2.30;;;;;;;;;;5020157;28;58493;-63
2023/05/22 01:11:10;;;;;;;3.38;2.13;;;;;;;;;;5023496;28;58367;-63
2023/05/22 01:13:35;;;;;;;;;;;;;;;;;;5025584;28;59046;-63
2023/05/22 01:16:17;;;;;;;2.72;2.53;;;;;;;;;;5022443;28;58631;-62
2023/05/22 01:18:45;;;;;;;2.65;2.45;;;;;;;;;;5020907;28;58492;-63
2023/05/22 01:21:32;;;;;;;2.95;2.75;;;;;;;;;;5020793;28;58540;-62
2023/05/22 01:24:16;;;;;;;2.80;2.60;;;;;;;;;;5023616;28;58717;-62
2023/05/22 01:26:41;;;;;;;4.03;2.08;;;;;;;;;;5022776;28;58531;-63
2023/05/22 01:29:24;;;;;;;2.60;2.40;;;;;;;;;;5019497;28;58400;-63
2023/05/22 01:31:51;;;;;;;2.70;2.50;;;;;;;;;;5023366;28;58321;-63
2023/05/22 01:34:17;;;;;;;5.05;2.58;;;;;;;;;;5022132;28;58444;-62
2023/05/22 01:36:44;;;;;;;2.42;2.33;;;;;;;;;;5019758;28;58826;-61
2023/05/22 01:39:10;;;;;;;2.47;2.37;;;;;;;;;;5024996;28;58016;-63
2023/05/22 01:41:36;;;;;;;2.30;2.10;;;;;;;;;;5024414;28;58976;-63
2023/05/22 01:44:01;;;;;;;2.40;2.30;;;;;;;;;;5020231;28;58775;-63
2023/05/22 01:46:27;;;;;;;2.17;2.08;;;;;;;;;;5021461;28;58406;-63
2023/05/22 01:48:53;;;;;;;2.38;2.28;;;;;;;;;;5026304;28;58503;-62
2023/05/22 01:51:22;;;;;;;2.57;2.47;;;;;;;;;;5027125;28;58846;-63
2023/05/22 01:53:54;;;;;;;2.53;2.33;;;;;;;;;;5025306;28;59078;-63
2023/05/22 01:56:29;;;;;;;1.98;1.88;;;;;;;;;;5026140;28;58708;-63
2023/05/22 01:59:06;;;;;;;2.20;2.10;;;;;;;;;;5025652;28;58406;-62
2023/05/22 02:01:31;;;;;;;2.88;2.58;;;;;;;;;;5023111;28;61958;-63
2023/05/22 02:03:57;;;;;;;2.60;2.40;;;;;;;;;;5025021;28;58363;-64
2023/05/22 02:06:24;;;;;;;2.07;1.97;;;;;;;;;;5026870;28;58691;-64
2023/05/22 02:08:49;;;;;;;1.70;1.60;;;;;;;;;;5024013;28;58603;-63
2023/05/22 02:11:15;;;;;;;2.72;2.50;;;;;;;;;;5023767;28;58643;-62
2023/05/22 02:13:40;;;;;;;2.13;2.03;;;;;;;;;;5019243;28;58887;-62
2023/05/22 02:16:05;;;;;;;2.30;2.10;;;;;;;;;;5020766;28;58324;-61
2023/05/22 02:18:31;;;;;;;2.80;2.60;;;;;;;;;;5023445;28;58297;-63
2023/05/22 02:20:56;;;;;;;2.93;2.60;;;;;;;;;;5021426;28;59821;-61
2023/05/22 02:23:21;;;;;;;2.25;2.15;;;;;;;;;;5023174;28;58606;-63
2023/05/22 02:25:47;;;;;;;2.80;2.60;;;;;;;;;;5027796;28;58303;-62
2023/05/22 02:28:12;;;;;;;2.30;2.10;;;;;;;;;;5023266;28;58550;-63
2023/05/22 02:30:37;;;;;;;2.45;2.28;;;;;;;;;;5027948;28;58361;-63
2023/05/22 02:33:04;;;;;;;2.42;2.33;;;;;;;;;;5026839;28;58361;-62
2023/05/22 02:35:29;;;;;;;2.23;2.13;;;;;;;;;;5026832;28;58538;-63
2023/05/22 02:37:55;;;;;;;2.40;2.20;;;;;;;;;;5025988;28;58389;-64
2023/05/22 02:40:20;;;;;;;2.88;2.38;;;;;;;;;;5024859;28;58967;-63
2023/05/22 02:42:45;;;;;;;2.87;2.67;;;;;;;;;;5024425;28;58590;-63
2023/05/22 02:45:10;;;;;;;2.78;2.58;;;;;;;;;;5028053;28;58785;-61
2023/05/22 02:47:35;;;;;;;2.30;2.20;;;;;;;;;;5022862;28;58362;-62
2023/05/22 02:50:01;;;;;;;2.13;2.03;;;;;;;;;;5026658;28;58838;-61
2023/05/22 02:52:27;;;;;;;3.43;2.30;;;;;;;;;;5025927;28;59007;-61
2023/05/22 02:54:52;;;;;;;2.75;2.55;;;;;;;;;;5026779;28;58809;-61
2023/05/22 02:57:17;;;;;;;2.55;2.38;;;;;;;;;;5024864;28;58969;-60
2023/05/22 02:59:43;;;;;;;2.10;2.00;;;;;;;;;;5023473;28;58416;-61
2023/05/22 03:02:08;;;;;;;2.15;2.05;;;;;;;;;;5022792;28;58729;-61
2023/05/22 03:04:37;;;;;;;2.47;2.27;;;;;;;;;;5026644;28;58502;-61
2023/05/22 03:07:02;;;;;;;2.35;2.22;;;;;;;;;;5025910;28;58855;-61
2023/05/22 03:09:27;;;;;;;2.17;1.95;;;;;;;;;;5023738;28;58546;-62
2023/05/22 03:11:52;;;;;;;2.20;2.10;;;;;;;;;;5026789;28;59003;-61
2023/05/22 03:14:17;;;;;;;2.10;2.00;;;;;;;;;;5025098;28;58887;-61
2023/05/22 03:16:42;;;;;;;2.10;2.00;;;;;;;;;;5028043;28;58452;-61
2023/05/22 03:19:09;;;;;;;1.95;1.80;;;;;;;;;;5025918;28;58728;-62
2023/05/22 03:21:34;;;;;;;3.15;2.92;;;;;;;;;;5022953;28;58614;-61
2023/05/22 03:23:59;;;;;;;2.00;1.90;;;;;;;;;;5023354;28;58429;-61
2023/05/22 03:26:27;;;;;;;2.00;1.90;;;;;;;;;;5024557;28;58366;-61
2023/05/22 03:28:52;;;;;;;1.95;1.83;;;;;;;;;;5025738;28;58398;-61
2023/05/22 03:31:17;;;;;;;1.83;1.73;;;;;;;;;;5022464;28;58295;-61
2023/05/22 03:33:42;;;;;;;2.00;1.90;;;;;;;;;;5022430;28;58505;-60
2023/05/22 03:36:08;;;;;;;2.40;2.20;;;;;;;;;;5025235;28;58179;-62
2023/05/22 03:38:34;;;;;;;2.42;1.98;;;;;;;;;;5021057;28;58430;-61
2023/05/22 03:40:59;;;;;;;2.58;2.38;;;;;;;;;;5026998;28;58765;-60
2023/05/22 03:43:24;;;;;;;1.88;1.77;;;;;;;;;;5020549;28;58669;-60
2023/05/22 03:45:49;;;;;;;2.00;1.90;;;;;;;;;;5023233;28;58977;-60
2023/05/22 03:48:14;;;;;;;1.97;1.87;;;;;;;;;;5023944;28;59982;-60
2023/05/22 03:50:39;;;;;;;2.35;2.20;;;;;;;;;;5025677;28;58787;-61
2023/05/22 03:53:04;;;;;;;1.90;1.80;;;;;;;;;;5023028;28;58467;-60
2023/05/22 03:55:30;;;;;;;2.23;2.10;;;;;;;;;;5025980;28;58267;-61
2023/05/22 03:57:55;;;;;;;1.88;1.77;;;;;;;;;;5025804;28;58387;-61
2023/05/22 04:00:20;;;;;;;2.65;2.40;;;;;;;;;;5023063;28;58569;-61
2023/05/22 04:02:45;;;;;;;2.40;2.20;;;;;;;;;;5019106;28;58039;-61
2023/05/22 04:05:10;;;;;;;2.47;2.27;;;;;;;;;;5022891;28;58455;-60
2023/05/22 04:07:36;;;;;;;2.17;2.08;;;;;;;;;;5023595;28;58891;-61
2023/05/22 04:10:02;;;;;;;1.67;1.58;;;;;;;;;;5024695;28;59237;-61
2023/05/22 04:12:27;;;;;;;2.17;2.08;;;;;;;;;;5025428;28;59587;-59
2023/05/22 04:14:52;;;;;;;1.87;1.77;;;;;;;;;;5023407;28;58517;-60
2023/05/22 04:17:17;;;;;;;1.90;1.80;;;;;;;;;;5023918;28;59051;-62
2023/05/22 04:19:43;;;;;;;2.38;2.28;;;;;;;;;;5020690;28;58929;-61
2023/05/22 04:22:08;;;;;;;2.35;2.25;;;;;;;;;;5020803;28;58891;-61
2023/05/22 04:24:33;;;;;;;2.00;1.90;;;;;;;;;;5025722;28;58776;-61
2023/05/22 04:26:59;;;;;;;2.40;2.30;;;;;;;;;;5021367;28;57877;-61
2023/05/22 04:29:24;;;;;;;2.47;2.28;;;;;;;;;;5024614;28;58502;-61
2023/05/22 04:31:53;;;;;;;2.03;1.93;;;;;;;;;;5021403;28;58670;-60
2023/05/22 04:34:19;;;;;;;2.33;2.13;;;;;;;;;;5021103;28;58872;-62
2023/05/22 04:36:45;;;;;;;1.92;1.83;;;;;;;;;;5020047;28;58817;-62
2023/05/22 04:39:12;;;;;;;2.00;1.90;;;;;;;;;;5025232;28;58647;-62
2023/05/22 04:41:37;;;;;;;1.90;1.80;;;;;;;;;;5021546;28;58517;-61
2023/05/22 04:44:03;;;;;;;1.70;1.60;;;;;;;;;;5029292;28;58501;-61
2023/05/22 04:46:28;;;;;;;1.97;1.87;;;;;;;;;;5022108;28;58643;-63
2023/05/22 04:48:53;;;;;;;1.80;1.70;;;;;;;;;;5021976;28;59336;-62
2023/05/22 04:51:18;;;;;;;2.17;2.08;;;;;;;;;;5022757;28;58640;-63
2023/05/22 04:53:45;;;;;;;2.70;2.50;;;;;;;;;;5020765;28;58486;-63
2023/05/22 04:56:10;;;;;;;1.92;1.83;;;;;;;;;;5021827;28;58584;-63
2023/05/22 04:58:36;;;;;;;1.97;1.87;;;;;;;;;;5025965;28;58473;-62
2023/05/22 05:01:02;;;;;;;2.20;2.03;;;;;;;;;;5025826;28;58303;-62
2023/05/22 05:03:27;;;;;;;1.98;1.88;;;;;;;;;;5021049;28;58914;-60
2023/05/22 05:05:52;;;;;;;1.80;1.70;;;;;;;;;;5019803;28;58510;-63
2023/05/22 05:08:18;;;;;;;1.83;1.73;;;;;;;;;;5021485;28;58687;-63
2023/05/22 05:10:43;;;;;;;2.10;1.90;;;;;;;;;;5025601;28;58360;-62
2023/05/22 05:13:08;;;;;;;2.73;2.53;;;;;;;;;;5024067;28;58766;-63
2023/05/22 05:15:33;;;;;;;1.70;1.60;;;;;;;;;;5024346;28;58697;-63
2023/05/22 05:17:58;;;;;;;2.37;2.17;;;;;;;;;;5025603;28;58619;-62
2023/05/22 05:20:24;;;;;;;2.87;1.97;;;;;;;;;;5028318;28;58674;-63
2023/05/22 05:22:49;;;;;;;1.92;1.80;;;;;;;;;;5026219;28;58892;-63
2023/05/22 05:25:15;;;;;;;3.70;2.47;;;;;;;;;;5026580;28;58375;-63
2023/05/22 05:27:40;;;;;;;2.40;2.20;;;;;;;;;;5026591;28;58609;-62
2023/05/22 05:30:06;;;;;;;2.30;2.20;;;;;;;;;;5023227;28;58445;-68
2023/05/22 05:32:31;;;;;;;2.30;2.13;;;;;;;;;;5024127;28;58469;-66
2023/05/22 05:34:56;;;;;;;2.50;2.30;;;;;;;;;;5026603;28;58378;-66
2023/05/22 05:37:21;;;;;;;2.87;2.57;;;;;;;;;;5025325;28;59002;-65
2023/05/22 05:39:46;;;;;;;2.63;2.43;;;;;;;;;;5023471;28;58372;-64
2023/05/22 05:42:11;;;;;;;2.20;2.00;;;;;;;;;;5024242;28;58193;-64
2023/05/22 05:44:37;;;;;;;2.30;2.10;;;;;;;;;;5025565;28;58486;-64
2023/05/22 05:47:02;;;;;;;2.97;2.70;;;;;;;;;;5027253;28;58340;-64
2023/05/22 05:49:27;;;;;;;3.15;2.45;;;;;;;;;;5025755;28;58434;-62
2023/05/22 05:51:52;;;;;;;2.57;2.37;;;;;;;;;;5026545;28;58581;-62
2023/05/22 05:54:17;;;;;;;2.50;2.33;;;;;;;;;;5027782;28;58557;-62
2023/05/22 05:56:42;;;;;;;3.00;2.42;;;;;;;;;;5027560;28;58295;-62
2023/05/22 05:59:08;;;;;;;2.27;2.13;;;;;;;;;;5029877;28;58490;-62
2023/05/22 06:01:34;;;;;;;5.97;2.47;;;;;;;;;;5031443;28;58853;-62
2023/05/22 06:04:04;;;;;;;2.85;2.45;;;;;;;;;;5031025;28;59433;-61
2023/05/22 06:06:29;;;;;;;2.88;2.65;;;;;;;;;;5030507;28;58386;-61
2023/05/22 06:08:54;;;;;;;3.65;2.10;;;;;;;;;;5029694;28;58956;-62
2023/05/22 06:11:21;;;;;;;2.80;2.63;;;;;;;;;;5029009;28;58988;-61
2023/05/22 06:13:46;;;;;;;2.55;2.25;;;;;;;;;;5030293;28;58385;-62
2023/05/22 06:16:11;;;;;;;2.25;2.15;;;;;;;;;;5029019;28;58440;-62
2023/05/22 06:18:36;;;;;;;1.87;1.77;;;;;;;;;;5029401;28;58709;-61
2023/05/22 06:21:01;;;;;;;2.10;2.00;;;;;;;;;;5032709;28;58385;-63
2023/05/22 06:23:27;;;;;;;2.50;1.90;;;;;;;;;;5029362;28;58575;-62
2023/05/22 06:25:52;;;;;;;2.20;2.10;;;;;;;;;;5029889;28;58431;-62
2023/05/22 06:28:17;;;;;;;2.00;1.90;;;;;;;;;;5028721;28;58347;-62
2023/05/22 06:30:43;;;;;;;2.65;1.92;;;;;;;;;;5030801;28;58600;-61
2023/05/22 06:33:08;;;;;;;2.08;1.98;;;;;;;;;;5030115;28;58455;-63
2023/05/22 06:35:33;;;;;;;2.53;2.33;;;;;;;;;;5030825;28;59881;-62
2023/05/22 06:37:59;;;;;;;2.45;2.33;;;;;;;;;;5030466;28;58766;-61
2023/05/22 06:40:24;;;;;;;2.45;2.25;;;;;;;;;;5025582;28;58371;-62
2023/05/22 06:42:49;;;;;;;2.58;2.38;;;;;;;;;;5026751;28;58939;-63
2023/05/22 06:45:16;;;;;;;2.67;2.17;;;;;;;;;;5029286;28;58410;-62
2023/05/22 06:47:41;;;;;;;2.45;2.25;;;;;;;;;;5028236;28;58540;-62
2023/05/22 06:50:09;;;;;;;2.10;2.00;;;;;;;;;;5028484;28;58553;-62
2023/05/22 06:52:35;;;;;;;2.05;1.88;;;;;;;;;;5030547;28;58441;-61
2023/05/22 06:55:04;;;;;;;2.28;2.10;;;;;;;;;;5028986;28;59057;-62
2023/05/22 06:57:32;;;;;;;2.03;1.90;;;;;;;;;;5026779;28;58470;-62
2023/05/22 06:59:57;;;;;;;2.60;2.20;;;;;;;;;;5027995;28;58633;-62
2023/05/22 07:02:22;;;;;;;3.05;1.95;;;;;;;;;;5030567;28;58428;-60
2023/05/22 07:04:47;;;;;;;2.15;2.05;;;;;;;;;;5031419;28;58375;-62
2023/05/22 07:07:13;;;;;;;2.50;2.30;;;;;;;;;;5029979;28;59438;-62
2023/05/22 07:09:38;;;;;;;2.00;1.90;;;;;;;;;;5026123;28;58480;-63
2023/05/22 07:12:04;;;;;;;2.50;2.30;;;;;;;;;;5029428;28;58363;-62
2023/05/22 07:14:29;;;;;;;2.20;2.05;;;;;;;;;;5029007;28;59689;-62
2023/05/22 07:16:55;;;;;;;2.13;1.98;;;;;;;;;;5026785;28;58626;-63
2023/05/22 07:19:20;;;;;;;2.45;2.20;;;;;;;;;;5029460;28;58238;-63
2023/05/22 07:21:45;;;;;;;2.27;2.10;;;;;;;;;;5027409;28;59414;-62
2023/05/22 07:24:10;;;;;;;2.50;2.23;;;;;;;;;;5028287;28;58471;-62
2023/05/22 07:26:36;;;;;;;2.03;1.93;;;;;;;;;;5028683;28;58766;-62
2023/05/22 07:29:02;;;;;;;2.00;1.80;;;;;;;;;;5029104;28;58600;-62
2023/05/22 07:31:27;;;;;;;2.33;2.23;;;;;;;;;;5028510;28;58305;-62
2023/05/22 07:33:52;;;;;;;2.20;2.10;;;;;;;;;;5026562;28;58697;-62
2023/05/22 07:36:17;;;;;;;2.50;2.30;;;;;;;;;;5027432;28;58390;-62
2023/05/22 07:38:43;;;;;;;1.85;1.75;;;;;;;;;;5027467;28;58668;-62
2023/05/22 07:41:08;;;;;;;1.87;1.77;;;;;;;;;;5030336;28;59018;-62
2023/05/22 07:43:33;;;;;;;1.80;1.70;;;;;;;;;;5029223;28;58748;-62
2023/05/22 07:45:58;;;;;;;1.67;1.58;;;;;;;;;;5029674;28;58420;-62
2023/05/22 07:48:23;;;;;;;2.50;1.90;;;;;;;;;;5029278;28;58642;-62
2023/05/22 07:50:48;;;;;;;1.80;1.70;;;;;;;;;;5025119;28;58628;-64
2023/05/22 07:53:15;;;;;;;1.97;1.87;;;;;;;;;;5028744;28;58987;-62
2023/05/22 07:55:40;;;;;;;2.72;2.10;;;;;;;;;;5027918;28;58816;-63
2023/05/22 07:58:07;;;;;;;1.73;1.63;;;;;;;;;;5029972;28;58473;-64
2023/05/22 08:00:32;;;;;;;2.42;2.28;;;;;;;;;;5030293;28;58963;-65
2023/05/22 08:02:57;;;;;;;1.90;1.80;;;;;;;;;;5026642;28;58754;-64
2023/05/22 08:05:22;;;;;;;1.70;1.60;;;;;;;;;;5026149;28;58577;-62
2023/05/22 08:07:47;;;;;;;2.70;1.60;;;;;;;;;;5028559;28;58326;-64
2023/05/22 08:10:13;;;;;;;2.03;1.83;;;;;;;;;;5029543;28;58471;-64
2023/05/22 08:12:38;;;;;;;4.63;1.80;;;;;;;;;;5027279;28;58353;-64
2023/05/22 08:15:04;;;;;;;4.47;1.50;;;;;;;;;;5027720;28;58299;-62
2023/05/22 08:17:29;;;;;;;2.40;2.20;;;;;;;;;;5026639;28;58388;-64
2023/05/22 08:19:54;;;;;;;2.30;2.13;;;;;;;;;;5029296;28;58263;-65
2023/05/22 08:22:20;;;;;;;2.00;1.80;;;;;;;;;;5026054;28;57955;-66
2023/05/22 08:24:45;;;;;;;2.67;2.47;;;;;;;;;;5026876;28;58437;-64
2023/05/22 08:27:10;;;;;;;2.83;2.58;;;;;;;;;;5030014;28;58873;-63
2023/05/22 08:29:35;;;;;;;2.60;2.40;;;;;;;;;;5026211;28;58385;-65
2023/05/22 08:32:00;;;;;;;2.90;2.50;;;;;;;;;;5026673;28;59226;-63
2023/05/22 08:34:27;;;;;;;2.92;2.72;;;;;;;;;;5028362;28;58719;-62
2023/05/22 08:36:52;;;;;;;2.40;2.20;;;;;;;;;;5027362;28;58424;-63
2023/05/22 08:39:17;;;;;;;2.25;2.05;;;;;;;;;;5026529;28;58631;-62
2023/05/22 08:41:43;;;;;;;2.25;2.08;;;;;;;;;;5026026;28;58502;-65
2023/05/22 08:44:09;;;;;;;2.22;2.10;;;;;;;;;;5026353;28;58503;-65
2023/05/22 08:46:36;;;;;;;3.60;2.13;;;;;;;;;;5023186;28;58371;-65
2023/05/22 08:49:02;;;;;;;2.15;1.70;;;;;;;;;;5024344;28;58549;-66
2023/05/22 08:51:30;;;;;;;1.83;1.73;;;;;;;;;;5025258;28;58419;-65
2023/05/22 08:53:56;;;;;;;2.58;2.15;;;;;;;;;;5023462;28;59505;-62
2023/05/22 08:56:21;;;;;;;2.58;1.95;;;;;;;;;;5025305;28;58738;-62
2023/05/22 08:58:46;;;;;;;2.17;2.07;;;;;;;;;;5026097;28;58526;-63
2023/05/22 09:01:12;;;;;;;2.00;1.90;;;;;;;;;;5023121;28;58507;-62
2023/05/22 09:03:37;;;;;;;1.90;1.80;;;;;;;;;;5025518;28;58325;-62
2023/05/22 09:06:03;;;;;;;2.30;2.10;;;;;;;;;;5024974;28;58704;-62
2023/05/22 09:08:28;;;;;;;1.88;1.77;;;;;;;;;;5024370;28;58413;-63
2023/05/22 09:10:55;;;;;;;2.50;2.30;;;;;;;;;;5025681;28;58966;-63
2023/05/22 09:13:24;;;;;;;2.13;2.03;;;;;;;;;;5024744;28;58485;-62
2023/05/22 09:15:49;;;;;;;4.00;2.10;;;;;;;;;;5024349;28;59444;-60
2023/05/22 09:18:14;;;;;;;2.20;2.10;;;;;;;;;;5025256;28;59228;-62
2023/05/22 09:20:40;;;;;;;2.15;2.00;;;;;;;;;;5023854;28;58690;-62
2023/05/22 09:23:13;;;;;;;2.50;2.30;;;;;;;;;;5025723;28;58394;-62
2023/05/22 09:25:40;;;;;;;2.03;1.90;;;;;;;;;;5024769;28;58358;-63
2023/05/22 09:28:05;;;;;;;1.77;1.67;;;;;;;;;;5023670;28;58782;-61
2023/05/22 09:30:33;;;;;;;2.00;1.90;;;;;;;;;;5023670;28;58394;-61
2023/05/22 09:32:58;;;;;;;1.98;1.88;;;;;;;;;;5023743;28;59011;-63
2023/05/22 09:35:26;;;;;;;2.67;2.47;;;;;;;;;;5023970;28;58328;-63
2023/05/22 09:37:51;;;;;;;1.73;1.63;;;;;;;;;;5024905;28;60387;-63
2023/05/22 09:40:16;;;;;;;1.60;1.50;;;;;;;;;;5023404;28;58445;-63
2023/05/22 09:42:43;;;;;;;2.20;2.10;;;;;;;;;;5023287;28;58753;-63
2023/05/22 09:45:08;;;;;;;2.20;2.10;;;;;;;;;;5023343;28;58968;-61
2023/05/22 09:47:34;;;;;;;2.00;1.90;;;;;;;;;;5023299;28;58969;-63
2023/05/22 09:50:02;;;;;;;2.03;1.80;;;;;;;;;;5023821;28;58416;-63
2023/05/22 09:52:28;;;;;;;2.03;1.92;;;;;;;;;;5025032;28;59012;-62
2023/05/22 09:54:55;;;;;;;2.20;2.00;;;;;;;;;;5024747;27;58370;-65
2023/05/22 09:57:23;;;;;;;1.80;1.70;;;;;;;;;;5024471;28;59076;-61
2023/05/22 09:59:53;;;;;;;2.55;2.35;;;;;;;;;;5022939;28;58836;-64
2023/05/22 10:02:19;;;;;;;2.47;2.28;;;;;;;;;;5022613;28;58690;-66
2023/05/22 10:04:45;;;;;;;1.55;1.45;;;;;;;;;;5025207;28;58141;-65
2023/05/22 10:07:10;;;;;;;1.77;1.67;;;;;;;;;;5023619;28;59552;-64
2023/05/22 10:09:37;;;;;;;1.70;1.60;;;;;;;;;;5024621;28;59159;-66
2023/05/22 10:12:04;;;;;;;1.85;1.75;;;;;;;;;;5024176;28;58895;-66
2023/05/22 10:14:29;;;;;;;1.70;1.60;;;;;;;;;;5023514;28;59462;-66
2023/05/22 10:16:56;;;;;;;2.10;1.90;;;;;;;;;;5025673;28;58588;-62
2023/05/22 10:19:25;;;;;;;1.83;1.73;;;;;;;;;;5023788;28;58423;-65
2023/05/22 10:21:51;;;;;;;2.33;2.08;;;;;;;;;;5024411;28;58376;-64
2023/05/22 10:24:16;;;;;;;1.80;1.70;;;;;;;;;;5024630;28;58706;-65
2023/05/22 10:26:42;;;;;;;2.15;1.80;;;;;;;;;;5022850;28;58612;-64
2023/05/22 10:29:13;;;;;;;1.63;1.52;;;;;;;;;;5024787;28;58431;-66
2023/05/22 10:31:42;;;;;;;2.33;2.22;;;;;;;;;;5024286;28;58496;-63
2023/05/22 10:34:10;;;;;;;2.50;2.30;;;;;;;;;;5023103;28;58439;-66
2023/05/22 10:36:41;;;;;;;1.92;1.83;;;;;;;;;;5023907;28;58466;-65
2023/05/22 10:39:06;;;;;;;1.92;1.83;;;;;;;;;;5023637;28;58907;-66
2023/05/22 10:41:31;;;;;;;1.70;1.60;;;;;;;;;;5024143;28;58358;-65
2023/05/22 10:43:57;;;;;;;1.75;1.65;;;;;;;;;;5024117;28;59214;-62
2023/05/22 10:46:22;;;;;;;1.67;1.58;;;;;;;;;;5025417;28;59571;-64
2023/05/22 10:48:48;;;;;;;2.03;1.93;;;;;;;;;;5027319;28;58506;-65
2023/05/22 10:51:15;;;;;;;2.10;2.00;;;;;;;;;;5027538;28;59176;-65
2023/05/22 10:53:41;;;;;;;1.73;1.63;;;;;;;;;;5025727;28;58484;-66
2023/05/22 10:56:14;;;;;;;2.30;2.13;;;;;;;;;;5027025;28;58837;-66
2023/05/22 10:58:43;;;;;;;1.70;1.60;;;;;;;;;;5027371;28;60437;-66
2023/05/22 11:01:18;;;;;;;2.10;2.00;;;;;;;;;;5024747;28;58504;-65
2023/05/22 11:03:56;;;;;;;2.05;1.95;;;;;;;;;;5025691;28;58610;-65
2023/05/22 11:06:31;;;;;;;1.80;1.70;;;;;;;;;;5026329;28;59464;-64
2023/05/22 11:08:56;;;;;;;1.60;1.50;;;;;;;;;;5026205;28;58489;-65
2023/05/22 11:11:23;;;;;;;1.90;1.80;;;;;;;;;;5027433;28;59017;-65
2023/05/22 11:13:52;;;;;;;2.03;1.92;;;;;;;;;;5026867;28;58752;-65
2023/05/22 11:16:18;;;;;;;1.75;1.65;;;;;;;;;;5025278;28;58126;-65
2023/05/22 11:18:43;;;;;;;1.83;1.73;;;;;;;;;;5026003;28;58660;-65
2023/05/22 11:21:08;;;;;;;1.90;1.73;;;;;;;;;;5025182;28;58534;-66
2023/05/22 11:23:35;;;;;;;1.75;1.65;;;;;;;;;;5026244;28;58318;-65
2023/05/22 11:26:17;;;;;;;2.15;2.05;;;;;;;;;;5026613;28;58819;-65
2023/05/22 11:28:42;;;;;;;1.85;1.75;;;;;;;;;;5026274;28;58406;-65
2023/05/22 11:31:08;;;;;;;1.70;1.60;;;;;;;;;;5025887;28;58994;-65
2023/05/22 11:33:33;;;;;;;1.90;1.80;;;;;;;;;;5024887;28;58378;-65
2023/05/22 11:35:58;;;;;;;1.83;1.73;;;;;;;;;;5025166;28;58378;-65
2023/05/22 11:38:24;;;;;;;2.37;2.27;;;;;;;;;;5026094;28;58728;-65
2023/05/22 11:40:50;;;;;;;1.75;1.65;;;;;;;;;;5024669;28;58641;-66
2023/05/22 11:43:26;;;;;;;1.77;1.67;;;;;;;;;;5026853;28;58413;-65
2023/05/22 11:45:51;;;;;;;1.90;1.80;;;;;;;;;;5024213;28;58737;-66
2023/05/22 11:48:18;;;;;;;1.95;1.85;;;;;;;;;;5024912;28;58409;-64
2023/05/22 11:50:43;;;;;;;1.75;1.65;;;;;;;;;;5024229;28;58910;-66
2023/05/22 11:53:08;;;;;;;2.00;1.90;;;;;;;;;;5024531;28;58607;-64
2023/05/22 11:55:34;;;;;;;2.23;2.10;;;;;;;;;;5024691;28;58382;-65
2023/05/22 11:58:00;;;;;;;1.65;1.55;;;;;;;;;;5024649;28;58581;-66
2023/05/22 12:00:26;;;;;;;1.98;1.88;;;;;;;;;;5023793;28;58651;-65
2023/05/22 12:02:51;;;;;;;1.90;1.80;;;;;;;;;;5024890;28;58387;-65
2023/05/22 12:05:19;;;;;;;2.08;1.98;;;;;;;;;;5023683;28;58910;-63
2023/05/22 12:07:44;;;;;;;1.90;1.80;;;;;;;;;;5024989;28;58896;-64
2023/05/22 12:10:09;;;;;;;3.23;1.80;;;;;;;;;;5026691;28;58392;-62
2023/05/22 12:12:35;;;;;;;3.65;2.50;;;;;;;;;;5027589;28;58804;-62
2023/05/22 12:15:03;;;;;;;2.33;2.00;;;;;;;;;;5028549;28;58742;-64
2023/05/22 12:17:28;;;;;;;4.55;2.17;;;;;;;;;;5027613;28;59166;-68
2023/05/22 12:19:54;;;;;;;6.63;2.38;;;;;;;;;;5028639;28;58234;-63
2023/05/22 12:22:21;;;;;;;1.93;1.83;;;;;;;;;;5028043;28;58871;-63
2023/05/22 12:24:50;;;;;;;4.93;4.25;;;;;;;;;;5025555;28;60200;-63
2023/05/22 12:27:15;;;;;;;6.43;3.63;;;;;;;;;;5028259;28;58988;-65
2023/05/22 12:29:41;;;;;;;3.08;2.40;;;;;;;;;;5027605;28;58561;-60
2023/05/22 12:32:07;;;;;;;8.00;4.05;;;;;;;;;;5026330;28;58512;-65
2023/05/22 12:34:33;;;;;;;4.03;3.00;;;;;;;;;;5027317;28;58414;-63
2023/05/22 12:36:58;;;;;;;2.78;2.55;;;;;;;;;;5027516;28;58425;-64
2023/05/22 12:39:24;;;;;;;6.03;2.80;;;;;;;;;;5028537;28;58711;-63
2023/05/22 12:41:49;;;;;;;3.25;2.88;;;;;;;;;;5027637;28;58545;-62
2023/05/22 12:44:15;;;;;;;4.32;3.22;;;;;;;;;;5026564;28;58900;-63
2023/05/22 12:46:40;;;;;;;3.08;2.78;;;;;;;;;;5024761;28;58682;-63
2023/05/22 12:49:05;;;;;;;6.10;3.03;;;;;;;;;;5029746;28;58290;-63
2023/05/22 12:51:31;;;;;;;3.33;3.03;;;;;;;;;;5025755;28;58361;-62
2023/05/22 12:53:56;;;;;;;2.90;2.65;;;;;;;;;;5025771;28;58772;-63
2023/05/22 12:56:22;;;;;;;4.68;2.28;;;;;;;;;;5027514;28;58940;-63
2023/05/22 12:58:47;;;;;;;3.42;3.13;;;;;;;;;;5024846;28;58421;-63
2023/05/22 13:01:12;;;;;;;3.20;2.73;;;;;;;;;;5026829;28;58411;-66
2023/05/22 13:03:37;;;;;;;3.00;2.70;;;;;;;;;;5028209;28;58310;-62
2023/05/22 13:06:03;;;;;;;5.53;3.23;;;;;;;;;;5025903;28;58684;-64
2023/05/22 13:08:28;;;;;;;2.63;2.43;;;;;;;;;;5025853;28;58157;-65
2023/05/22 13:10:53;;;;;;;9.75;3.92;;;;;;;;;;5027171;28;58715;-62
2023/05/22 13:13:18;;;;;;;5.03;2.73;;;;;;;;;;5026078;28;58681;-64
2023/05/22 13:15:44;;;;;;;6.60;2.50;;;;;;;;;;5022854;28;58978;-64
2023/05/22 13:18:10;;;;;;;5.50;3.88;;;;;;;;;;5021272;28;58552;-64
2023/05/22 13:20:37;;;;;;;3.75;2.72;;;;;;;;;;5019457;28;58838;-62
2023/05/22 13:23:02;;;;;;;3.08;2.83;;;;;;;;;;5022827;28;60157;-65
2023/05/22 13:25:27;;;;;;;4.43;3.00;;;;;;;;;;5026779;28;58374;-65
2023/05/22 13:27:52;;;;;;;5.88;3.10;;;;;;;;;;5023014;28;58615;-65
2023/05/22 13:30:17;;;;;;;4.30;2.70;;;;;;;;;;5025421;28;58832;-65
2023/05/22 13:32:42;;;;;;;3.27;2.30;;;;;;;;;;5023753;28;58568;-63
2023/05/22 13:35:08;;;;;;;3.65;2.45;;;;;;;;;;5019761;28;58809;-65
2023/05/22 13:37:33;;;;;;;3.53;2.47;;;;;;;;;;5021446;28;60081;-64
2023/05/22 13:39:58;;;;;;;3.63;2.65;;;;;;;;;;5019533;28;58376;-65
2023/05/22 13:42:23;;;;;;;4.57;2.58;;;;;;;;;;5022169;28;58828;-64
2023/05/22 13:44:48;;;;;;;3.17;2.80;;;;;;;;;;5017671;28;58879;-65
2023/05/22 13:47:14;;;;;;;4.03;2.23;;;;;;;;;;5015232;28;58355;-65
2023/05/22 13:49:39;;;;;;;2.47;2.27;;;;;;;;;;5017300;28;58773;-64
2023/05/22 13:52:04;;;;;;;2.50;2.20;;;;;;;;;;5017714;28;59274;-65
2023/05/22 13:54:29;;;;;;;2.97;2.70;;;;;;;;;;5015035;28;58807;-64
2023/05/22 13:56:56;;;;;;;3.93;2.73;;;;;;;;;;5013680;28;58616;-65
2023/05/22 13:59:21;;;;;;;3.38;2.30;;;;;;;;;;5015257;28;58704;-64
2023/05/22 14:01:46;;;;;;;3.50;2.77;;;;;;;;;;5016442;28;58823;-65
2023/05/22 14:04:11;;;;;;;2.65;2.45;;;;;;;;;;5017423;28;58682;-64
2023/05/22 14:06:37;;;;;;;2.85;2.63;;;;;;;;;;5017267;28;58864;-63
2023/05/22 14:09:04;;;;;;;4.03;2.93;;;;;;;;;;5017717;28;58997;-65
2023/05/22 14:11:29;;;;;;;3.67;2.40;;;;;;;;;;5015684;28;58493;-65
2023/05/22 14:13:55;;;;;;;2.90;2.70;;;;;;;;;;5016606;28;58361;-62
2023/05/22 14:16:20;;;;;;;2.53;2.33;;;;;;;;;;5014737;28;58360;-65
2023/05/22 14:18:45;;;;;;;3.72;2.25;;;;;;;;;;5016609;28;58444;-65
2023/05/22 14:21:11;;;;;;;3.30;2.50;;;;;;;;;;5018255;28;59002;-61
2023/05/22 14:23:36;;;;;;;2.83;2.63;;;;;;;;;;5017572;28;58545;-65
2023/05/22 14:26:01;;;;;;;2.70;2.50;;;;;;;;;;5022028;28;58367;-64
2023/05/22 14:28:26;;;;;;;2.70;2.47;;;;;;;;;;5019469;28;59047;-64
2023/05/22 14:30:51;;;;;;;4.27;2.80;;;;;;;;;;5019000;28;61243;-62
2023/05/22 14:33:16;;;;;;;2.58;2.38;;;;;;;;;;5021730;28;58469;-65
2023/05/22 14:35:42;;;;;;;4.03;2.78;;;;;;;;;;5019236;28;58706;-64